Time;durP1;ratioP1;P1;durP2;ratioP2;P2;SDS_P1;SDS_P2;PMS_P1;PMS_P2;Temp;Humidity;BMP_temperature;BMP_pressure;BME280_temperature;BME280_humidity;BME280_pressure;Samples;Min_cycle;Max_cycle;Signal;HPM_P1;HPM_P2
2021/09/30 00:00:11;;;;;;;1.30;0.87;;;;;;;6.97;88.42;100808.44;4990553;28;20524;-76
2021/09/30 00:02:56;;;;;;;3.67;1.20;;;;;;;7.15;88.73;100809.84;4984549;28;20136;-75
2021/09/30 00:05:43;;;;;;;1.77;1.08;;;;;;;7.01;88.20;100810.81;4989006;28;20145;-76
2021/09/30 00:08:29;;;;;;;2.97;0.93;;;;;;;6.92;89.40;100813.25;4973040;28;20074;-74
2021/09/30 00:11:19;;;;;;;2.55;0.98;;;;;;;6.77;89.49;100815.19;4991957;28;20445;-75
2021/09/30 00:14:09;;;;;;;2.15;0.90;;;;;;;6.72;89.43;100818.16;4984986;28;20428;-75
2021/09/30 00:17:06;;;;;;;3.42;1.30;;;;;;;6.59;90.05;100819.97;4981239;28;20053;-75
2021/09/30 00:35:23;;;;;;;1.70;0.95;;;;;;;6.52;90.77;100824.03;4988680;28;20066;-75
2021/09/30 00:41:23;;;;;;;2.10;1.05;;;;;;;6.79;90.31;100837.28;4987912;28;20054;-75
2021/09/30 00:47:28;;;;;;;3.08;1.45;;;;;;;6.69;89.68;100831.72;4991179;28;20085;-74
2021/09/30 00:50:25;;;;;;;1.20;0.90;;;;;;;6.69;89.99;100826.38;4989263;28;20555;-75
2021/09/30 00:53:37;;;;;;;3.15;1.33;;;;;;;6.84;89.04;100828.94;4990034;28;20053;-75
2021/09/30 01:19:06;;;;;;;5.72;1.50;;;;;;;6.91;88.59;100848.91;4990247;28;20053;-76
2021/09/30 01:46:59;;;;;;;3.47;2.00;;;;;;;6.61;90.64;100871.38;4986654;28;20069;-79
2021/09/30 01:57:41;;;;;;;4.65;2.42;;;;;;;6.63;90.75;100869.50;4987878;28;20732;-78
2021/09/30 02:21:07;;;;;;;4.95;2.08;;;;;;;7.00;88.64;100897.19;4990072;28;20060;-77
2021/09/30 02:30:11;;;;;;;7.63;1.98;;;;;;;7.18;87.42;100903.03;4994529;28;20673;-75
2021/09/30 03:00:56;;;;;;;4.35;1.65;;;;;;;7.33;87.47;100927.81;4992876;28;20065;-76
2021/09/30 03:03:42;;;;;;;3.85;1.60;;;;;;;7.36;87.45;100930.31;4986488;28;20108;-78
2021/09/30 03:06:29;;;;;;;4.85;1.85;;;;;;;7.38;87.01;100935.53;4992901;28;20136;-77
2021/09/30 03:09:19;;;;;;;4.32;1.95;;;;;;;7.38;86.68;100932.84;4993627;28;20108;-77
2021/09/30 03:12:07;;;;;;;4.15;1.80;;;;;;;7.45;86.52;100937.66;4993242;28;20412;-78
2021/09/30 03:15:04;;;;;;;3.72;1.77;;;;;;;7.43;86.83;100933.38;4988561;28;20065;-77
2021/09/30 03:17:58;;;;;;;5.80;2.15;;;;;;;7.36;86.85;100929.44;4987729;28;20049;-78
2021/09/30 03:20:49;;;;;;;3.58;1.52;;;;;;;7.38;86.79;100936.38;4992877;28;20060;-77
2021/09/30 03:23:34;;;;;;;4.60;1.58;;;;;;;7.31;87.04;100941.28;4993189;28;20069;-76
2021/09/30 03:26:20;;;;;;;6.28;1.83;;;;;;;7.29;86.72;100937.88;4985185;28;20061;-75
2021/09/30 03:29:06;;;;;;;3.67;1.38;;;;;;;7.08;88.06;100944.69;4987028;28;20178;-76
2021/09/30 03:31:52;;;;;;;;;;;;;;;7.11;87.68;100928.47;4994720;28;20065;-76
2021/09/30 03:34:39;;;;;;;3.25;1.75;;;;;;;7.04;88.16;100924.50;4992627;28;19928;-79
2021/09/30 03:37:24;;;;;;;5.25;1.73;;;;;;;6.96;88.03;100933.03;4992347;28;20062;-75
2021/09/30 03:40:10;;;;;;;4.03;1.48;;;;;;;7.03;89.21;100930.81;4986978;28;20126;-77
2021/09/30 03:42:56;;;;;;;2.45;1.60;;;;;;;7.05;88.41;100939.56;4990768;28;20061;-80
2021/09/30 03:45:41;;;;;;;;;;;;;;;7.03;87.76;100947.69;4994958;28;20070;-78
2021/09/30 03:48:27;;;;;;;4.20;1.60;;;;;;;6.95;88.35;100939.31;4981519;28;20075;-74
2021/09/30 03:51:17;;;;;;;5.88;1.98;;;;;;;7.03;87.74;100946.81;4992948;28;20061;-77
2021/09/30 03:54:13;;;;;;;3.75;1.80;;;;;;;6.88;88.57;100942.53;4993237;28;20105;-78
2021/09/30 03:57:05;;;;;;;6.90;2.45;;;;;;;6.87;88.47;100947.00;4990471;28;20049;-73
2021/09/30 03:59:51;;;;;;;5.55;1.80;;;;;;;6.72;89.39;100946.22;4992249;28;20049;-78
2021/09/30 04:02:36;;;;;;;6.10;1.70;;;;;;;6.79;88.62;100948.47;4992673;28;20061;-78
2021/09/30 04:05:22;;;;;;;3.60;1.60;;;;;;;6.74;89.26;100957.63;4979877;28;20526;-76
2021/09/30 04:08:09;;;;;;;2.73;1.67;;;;;;;6.73;88.99;100950.56;4990807;28;20093;-78
2021/09/30 04:10:54;;;;;;;4.65;1.63;;;;;;;6.66;89.48;100948.44;4992624;28;20049;-75
2021/09/30 04:13:39;;;;;;;3.27;1.53;;;;;;;6.65;89.90;100947.59;4992400;28;20125;-76
2021/09/30 04:16:26;;;;;;;2.90;1.57;;;;;;;6.73;88.57;100949.72;4993490;28;20587;-72
2021/09/30 04:19:12;;;;;;;3.47;1.85;;;;;;;6.84;88.30;100952.53;4988746;28;20130;-77
2021/09/30 04:21:59;;;;;;;12.73;2.83;;;;;;;6.78;88.33;100958.28;4986164;28;20425;-73
2021/09/30 04:24:47;;;;;;;7.35;1.92;;;;;;;6.83;88.46;100953.50;4988247;28;20109;-77
2021/09/30 04:27:32;;;;;;;4.03;1.85;;;;;;;6.66;89.24;100962.63;4988266;28;20049;-75
2021/09/30 04:30:17;;;;;;;3.47;1.70;;;;;;;6.77;89.35;100967.25;4993695;28;20109;-76
2021/09/30 04:33:02;;;;;;;6.60;2.20;;;;;;;6.66;89.40;100975.97;4993241;28;20117;-77
2021/09/30 04:35:48;;;;;;;6.45;2.20;;;;;;;6.70;88.94;100971.28;4987716;28;20061;-75
2021/09/30 04:38:33;;;;;;;3.43;1.90;;;;;;;6.64;89.44;100980.56;4989059;28;20109;-77
2021/09/30 04:41:20;;;;;;;4.68;1.98;;;;;;;6.73;88.71;100979.06;4992835;28;20058;-77
2021/09/30 04:44:06;;;;;;;5.40;2.20;;;;;;;6.69;89.42;100983.75;4990795;28;20072;-74
2021/09/30 04:46:51;;;;;;;4.75;1.70;;;;;;;6.80;88.25;100987.53;4987801;28;20057;-77
2021/09/30 04:49:37;;;;;;;5.93;2.13;;;;;;;6.85;88.23;100985.41;4988444;28;20109;-77
2021/09/30 04:52:21;;;;;;;4.32;2.00;;;;;;;6.92;87.87;100992.91;4986019;28;20061;-81
2021/09/30 04:55:07;;;;;;;7.03;2.17;;;;;;;7.19;86.21;100998.19;4991746;28;20061;-75
2021/09/30 04:57:54;;;;;;;3.03;1.38;;;;;;;7.09;86.21;100999.78;4992393;28;20053;-77
2021/09/30 05:00:39;;;;;;;6.72;2.05;;;;;;;6.89;87.44;101000.28;4985399;28;20145;-78
2021/09/30 05:03:24;;;;;;;5.10;1.50;;;;;;;6.95;87.44;100998.03;4981138;28;20057;-77
2021/09/30 05:06:10;;;;;;;4.63;1.60;;;;;;;6.92;87.64;101005.41;4986566;28;20053;-76
2021/09/30 05:08:58;;;;;;;5.25;1.63;;;;;;;7.05;86.72;101011.63;4989519;28;20452;-75
2021/09/30 05:11:50;;;;;;;4.47;1.65;;;;;;;7.04;86.57;101009.91;4989440;28;20069;-76
2021/09/30 05:14:37;;;;;;;2.95;1.77;;;;;;;7.08;86.58;101011.41;4992236;28;20074;-76
2021/09/30 05:17:22;;;;;;;3.47;1.70;;;;;;;7.18;86.21;101015.19;4985821;28;20058;-76
2021/09/30 05:20:09;;;;;;;3.97;2.33;;;;;;;7.12;86.26;101020.09;4991205;28;20053;-78
2021/09/30 05:22:54;;;;;;;6.53;2.13;;;;;;;7.20;86.31;101029.28;5023094;23;20056;-61
2021/09/30 05:25:40;;;;;;;6.65;2.08;;;;;;;7.29;85.54;101027.81;5023619;28;20056;-61
2021/09/30 05:28:26;;;;;;;4.15;1.80;;;;;;;7.29;85.57;101020.66;5028770;28;20514;-62
2021/09/30 05:31:12;;;;;;;3.60;1.70;;;;;;;7.46;84.06;101034.66;5023845;28;20431;-63
2021/09/30 05:33:57;;;;;;;6.47;1.70;;;;;;;7.52;84.96;101040.44;5018958;28;20068;-63
2021/09/30 05:36:42;;;;;;;7.43;1.85;;;;;;;7.62;84.31;101025.50;5024192;28;20096;-62
2021/09/30 05:39:27;;;;;;;4.63;1.80;;;;;;;7.60;85.13;101026.56;5030483;28;20128;-63
2021/09/30 05:42:13;;;;;;;3.67;2.28;;;;;;;7.89;82.63;101032.53;5029943;28;20060;-63
2021/09/30 05:44:59;;;;;;;4.03;1.70;;;;;;;8.05;82.33;101034.97;5029314;28;20052;-63
2021/09/30 05:47:46;;;;;;;4.13;1.65;;;;;;;8.29;80.34;101025.22;5029568;28;20140;-60
2021/09/30 05:50:32;;;;;;;5.40;1.95;;;;;;;8.36;80.44;101037.22;5030679;28;20103;-63
2021/09/30 05:53:18;;;;;;;3.22;1.90;;;;;;;8.29;80.71;101035.94;5030295;28;20535;-64
2021/09/30 05:56:03;;;;;;;3.50;1.38;;;;;;;8.67;79.31;101032.31;5028991;28;20065;-64
2021/09/30 05:58:48;;;;;;;3.55;1.38;;;;;;;8.43;80.60;101035.81;5030486;28;20056;-62
2021/09/30 06:11:22;;;;;;;6.35;1.83;;;;;;;8.25;80.81;101039.78;5022001;28;20064;-61
2021/09/30 06:14:10;;;;;;;3.58;1.40;;;;;;;8.23;81.10;101039.03;5024838;28;20531;-61
2021/09/30 06:16:55;;;;;;;5.60;1.50;;;;;;;8.16;81.42;101051.13;5028868;28;20183;-63
2021/09/30 06:19:41;;;;;;;5.37;1.80;;;;;;;8.19;81.59;101054.44;5029220;28;20076;-64
2021/09/30 06:22:27;;;;;;;5.95;1.77;;;;;;;8.14;81.30;101053.91;5023758;28;20343;-61
2021/09/30 06:25:12;;;;;;;4.38;1.60;;;;;;;8.10;81.59;101062.25;5025952;28;20183;-61
2021/09/30 06:27:57;;;;;;;7.22;1.48;;;;;;;8.17;82.48;101064.41;5028207;28;20132;-63
2021/09/30 06:30:42;;;;;;;7.03;1.63;;;;;;;8.38;80.43;101061.16;5029059;28;20128;-63
2021/09/30 06:33:27;;;;;;;3.08;1.40;;;;;;;8.30;80.71;101063.53;5022657;28;20208;-63
2021/09/30 06:36:13;;;;;;;3.33;1.60;;;;;;;8.27;82.16;101069.94;5027871;28;20512;-62
2021/09/30 06:38:59;;;;;;;4.45;1.63;;;;;;;8.37;82.17;101071.00;5028282;28;20060;-62
2021/09/30 06:41:44;;;;;;;4.47;1.80;;;;;;;8.61;79.91;101070.22;5021986;28;20059;-62
2021/09/30 06:44:29;;;;;;;5.45;1.80;;;;;;;8.57;80.47;101066.91;5028958;28;20107;-62
2021/09/30 06:47:14;;;;;;;3.60;1.88;;;;;;;8.71;80.24;101072.13;5028618;28;20522;-63
2021/09/30 06:49:59;;;;;;;3.58;1.42;;;;;;;8.71;79.73;101063.22;5029278;28;20049;-64
2021/09/30 06:52:44;;;;;;;5.18;1.63;;;;;;;8.70;79.57;101077.59;5019367;28;20064;-64
2021/09/30 06:55:31;;;;;;;3.45;1.63;;;;;;;8.77;78.36;101078.84;5021971;28;20084;-63
2021/09/30 06:58:16;;;;;;;3.70;1.60;;;;;;;8.88;79.77;101091.41;5027577;28;20538;-62
2021/09/30 07:01:02;;;;;;;4.35;2.22;;;;;;;8.83;79.03;101086.41;5023604;28;20582;-63
2021/09/30 07:03:49;;;;;;;3.27;1.47;;;;;;;8.99;78.34;101100.38;5024955;28;20139;-61
2021/09/30 07:06:34;;;;;;;2.83;1.52;;;;;;;9.14;77.68;101094.88;5020716;28;20303;-63
2021/09/30 07:09:20;;;;;;;3.60;1.45;;;;;;;9.09;77.96;101101.41;5025013;28;20049;-62
2021/09/30 07:12:06;;;;;;;8.80;1.50;;;;;;;9.33;77.95;101111.25;5029089;28;20056;-62
2021/09/30 07:14:52;;;;;;;1.63;1.15;;;;;;;9.34;77.64;101107.63;5028626;28;20127;-63
2021/09/30 07:17:36;;;;;;;3.45;1.45;;;;;;;9.80;76.05;101104.97;5030204;28;20052;-62
2021/09/30 07:20:22;;;;;;;4.68;1.42;;;;;;;9.69;75.66;101099.56;5032406;28;20615;-63
2021/09/30 07:23:07;;;;;;;4.20;1.70;;;;;;;9.40;76.14;101112.53;5030219;28;20549;-63
2021/09/30 07:25:52;;;;;;;3.55;1.60;;;;;;;9.64;75.69;101101.78;5031031;28;20168;-62
2021/09/30 07:28:39;;;;;;;4.18;1.77;;;;;;;9.66;76.31;101119.44;5032528;28;20052;-64
2021/09/30 07:31:24;;;;;;;4.85;1.35;;;;;;;9.73;75.27;101110.94;5031417;28;20411;-63
2021/09/30 07:34:12;;;;;;;6.82;1.70;;;;;;;9.80;74.72;101123.72;5025779;28;20052;-62
2021/09/30 07:36:57;;;;;;;9.02;1.92;;;;;;;9.81;75.56;101119.22;5030033;28;20064;-62
2021/09/30 07:39:42;;;;;;;4.93;1.30;;;;;;;9.86;75.48;101122.44;5032247;28;20096;-64
2021/09/30 07:42:27;;;;;;;2.28;1.40;;;;;;;9.87;76.38;101134.84;5023763;28;20630;-63
2021/09/30 07:45:13;;;;;;;4.68;1.77;;;;;;;10.05;76.05;101116.47;5028271;28;20076;-62
2021/09/30 07:47:58;;;;;;;;;;;;;;;9.93;76.77;101134.38;5031734;28;20056;-64
2021/09/30 07:50:43;;;;;;;10.35;2.50;;;;;;;10.18;74.12;101138.69;5031043;28;19928;-62
2021/09/30 07:53:29;;;;;;;3.75;1.50;;;;;;;10.14;73.92;101146.13;5018766;28;20060;-62
2021/09/30 07:56:14;;;;;;;4.35;1.60;;;;;;;10.03;74.72;101130.00;5030153;28;20100;-64
2021/09/30 07:58:59;;;;;;;5.75;2.03;;;;;;;10.22;74.02;101149.09;5023183;28;20120;-63
2021/09/30 08:01:46;;;;;;;5.32;1.85;;;;;;;10.08;75.20;101153.81;5023061;28;20133;-62
2021/09/30 08:04:31;;;;;;;3.92;1.80;;;;;;;10.01;75.78;101140.00;5027515;28;20064;-62
2021/09/30 08:07:16;;;;;;;5.95;1.30;;;;;;;10.26;75.65;101141.66;5021585;28;20064;-63
2021/09/30 08:10:01;;;;;;;2.30;1.30;;;;;;;10.37;73.53;101143.50;5021302;28;20056;-62
2021/09/30 08:12:46;;;;;;;3.25;1.35;;;;;;;10.35;73.88;101169.59;5023098;28;20051;-65
2021/09/30 08:15:32;;;;;;;9.90;1.65;;;;;;;10.14;74.61;101151.50;5021168;28;20060;-62
2021/09/30 08:18:18;;;;;;;5.70;1.48;;;;;;;10.29;75.05;101165.56;5020447;28;20056;-62
2021/09/30 08:21:03;;;;;;;6.50;1.50;;;;;;;10.56;73.95;101150.97;5016643;28;20416;-63
2021/09/30 08:23:49;;;;;;;6.75;2.33;;;;;;;10.44;72.60;101144.75;5022151;28;20056;-61
2021/09/30 08:26:34;;;;;;;4.37;1.70;;;;;;;10.93;72.09;101162.28;5024519;28;20056;-61
2021/09/30 08:29:21;;;;;;;4.20;1.58;;;;;;;10.79;73.87;101161.56;5025617;28;20053;-62
2021/09/30 08:32:07;;;;;;;3.35;1.10;;;;;;;10.90;71.97;101166.09;5020173;28;20416;-62
2021/09/30 08:34:53;;;;;;;3.75;1.52;;;;;;;10.83;72.26;101170.22;5020708;28;20084;-65
2021/09/30 08:37:39;;;;;;;1.67;1.13;;;;;;;10.75;72.51;101178.88;5020914;28;20060;-63
2021/09/30 08:40:24;;;;;;;3.72;1.20;;;;;;;11.09;71.12;101173.47;5022544;28;20061;-61
2021/09/30 08:43:09;;;;;;;3.28;1.40;;;;;;;11.33;71.44;101168.78;5012491;28;20415;-64
2021/09/30 08:45:54;;;;;;;3.63;1.25;;;;;;;11.45;70.96;101163.38;5022466;28;20073;-64
2021/09/30 08:48:40;;;;;;;3.97;1.83;;;;;;;11.69;68.92;101178.31;5013743;28;20061;-63
2021/09/30 08:51:27;;;;;;;1.63;1.00;;;;;;;12.16;68.20;101167.22;5020107;28;20319;-62
2021/09/30 08:54:12;;;;;;;9.80;1.70;;;;;;;12.24;68.21;101186.25;5021131;28;20061;-63
2021/09/30 08:56:58;;;;;;;3.43;2.10;;;;;;;11.92;66.42;101178.25;5017099;28;20077;-64
2021/09/30 08:59:43;;;;;;;3.55;1.23;;;;;;;12.09;67.31;101187.59;5020092;28;20053;-62
2021/09/30 09:02:28;;;;;;;3.03;1.48;;;;;;;12.18;67.32;101178.69;5020300;28;20474;-62
2021/09/30 09:05:13;;;;;;;1.85;1.10;;;;;;;12.34;66.54;101180.94;5019315;28;20064;-62
2021/09/30 09:08:03;;;;;;;2.43;1.33;;;;;;;12.62;67.56;101174.00;5018105;28;20060;-64
2021/09/30 09:10:54;;;;;;;3.22;1.20;;;;;;;12.32;66.14;101183.78;5014791;28;20306;-63
2021/09/30 09:13:39;;;;;;;3.17;1.20;;;;;;;12.64;66.04;101174.72;5020548;28;20080;-65
2021/09/30 09:16:24;;;;;;;2.38;1.20;;;;;;;12.71;66.53;101175.88;5014898;28;20060;-62
2021/09/30 09:19:09;;;;;;;2.60;1.38;;;;;;;12.91;64.44;101177.69;5025245;28;20052;-60
2021/09/30 09:21:54;;;;;;;12.18;3.97;;;;;;;13.08;65.75;101179.69;5021284;28;20052;-62
2021/09/30 09:25:03;;;;;;;5.85;1.83;;;;;;;13.06;65.92;101186.22;5017102;28;20567;-62
2021/09/30 09:27:52;;;;;;;3.63;1.35;;;;;;;12.86;66.77;101186.16;5020647;28;20071;-62
2021/09/30 09:30:43;;;;;;;4.82;1.75;;;;;;;12.92;63.34;101187.47;5022754;28;20111;-63
2021/09/30 09:33:30;;;;;;;3.03;1.23;;;;;;;13.18;65.54;101187.81;5026647;28;20072;-63
2021/09/30 09:36:23;;;;;;;7.35;1.73;;;;;;;13.12;62.82;101197.28;5023342;28;20185;-63
2021/09/30 09:39:08;;;;;;;4.95;1.67;;;;;;;12.85;63.57;101172.81;5023915;28;20052;-61
2021/09/30 09:42:05;;;;;;;3.97;1.27;;;;;;;13.28;63.55;101202.22;5030159;28;20279;-62
2021/09/30 09:44:53;;;;;;;6.30;1.50;;;;;;;13.39;62.73;101191.31;5027666;28;20115;-61
2021/09/30 09:47:40;;;;;;;3.95;1.50;;;;;;;13.57;61.52;101183.38;5015892;28;20064;-63
2021/09/30 09:50:26;;;;;;;4.55;1.60;;;;;;;13.62;63.33;101200.00;5028719;28;20802;-62
2021/09/30 09:53:12;;;;;;;1.45;0.90;;;;;;;13.58;62.21;101198.56;5028905;28;20112;-63
2021/09/30 09:56:09;;;;;;;3.38;1.08;;;;;;;13.94;62.30;101196.16;5024288;28;20051;-64
2021/09/30 09:58:57;;;;;;;2.90;0.98;;;;;;;13.80;60.92;101196.59;5022869;28;20123;-62
2021/09/30 10:01:45;;;;;;;2.15;1.00;;;;;;;13.99;60.73;101191.19;5024144;28;20183;-63
2021/09/30 10:04:30;;;;;;;8.40;1.33;;;;;;;13.91;60.74;101189.19;5029186;28;20064;-64
2021/09/30 10:07:15;;;;;;;4.18;1.20;;;;;;;13.63;61.61;101201.69;5029712;28;20191;-64
2021/09/30 10:10:00;;;;;;;3.97;1.13;;;;;;;13.59;61.68;101200.25;5029715;28;20127;-63
2021/09/30 10:12:45;;;;;;;5.25;1.33;;;;;;;13.82;60.86;101195.44;5029577;28;20134;-63
2021/09/30 10:15:32;;;;;;;4.18;1.35;;;;;;;14.10;60.90;101199.13;5021666;28;20104;-62
2021/09/30 10:18:18;;;;;;;1.80;1.13;;;;;;;14.62;62.00;101200.47;5015903;28;20554;-63
2021/09/30 10:21:03;;;;;;;3.25;1.17;;;;;;;15.25;57.65;101196.19;5025941;28;20212;-63
2021/09/30 10:23:54;;;;;;;1.90;0.88;;;;;;;15.88;59.64;101194.38;5029176;28;20542;-63
2021/09/30 10:26:44;;;;;;;6.53;1.35;;;;;;;16.55;54.30;101191.97;5028730;28;20444;-62
2021/09/30 10:29:39;;;;;;;3.65;1.10;;;;;;;16.36;54.95;101187.63;5024982;28;20216;-62
2021/09/30 10:32:26;;;;;;;1.98;0.80;;;;;;;16.65;54.60;101192.72;5023225;28;20419;-62
2021/09/30 10:35:11;;;;;;;2.72;1.10;;;;;;;16.21;54.56;101210.88;5022020;28;20084;-64
2021/09/30 10:38:15;;;;;;;3.75;1.05;;;;;;;15.76;54.25;101196.47;5028595;28;20056;-64
2021/09/30 10:41:10;;;;;;;5.05;1.08;;;;;;;16.53;53.60;101199.44;5029348;28;20049;-63
2021/09/30 10:44:12;;;;;;;3.58;1.00;;;;;;;16.25;55.20;101179.78;5030639;23;20095;-62
2021/09/30 10:46:59;;;;;;;4.13;0.90;;;;;;;16.18;52.10;101194.94;5024339;28;20554;-63
2021/09/30 10:49:51;;;;;;;4.85;1.10;;;;;;;15.78;52.33;101193.59;5031579;28;20059;-62
2021/09/30 10:52:50;;;;;;;3.20;0.68;;;;;;;15.98;53.41;101199.69;5033829;28;20060;-63
2021/09/30 10:55:35;;;;;;;2.83;0.80;;;;;;;15.91;52.23;101194.06;5011803;28;20333;-63
2021/09/30 10:58:23;;;;;;;10.23;0.85;;;;;;;16.90;51.06;101182.88;5008416;28;20060;-61
2021/09/30 11:01:14;;;;;;;4.53;0.80;;;;;;;17.07;49.87;101179.25;5013503;28;20049;-64
2021/09/30 11:04:00;;;;;;;3.13;1.00;;;;;;;16.92;48.64;101170.84;5011985;28;20430;-64
2021/09/30 11:07:13;;;;;;;6.35;1.15;;;;;;;15.97;49.75;101182.59;5011188;28;20153;-63
2021/09/30 11:10:21;;;;;;;4.70;0.90;;;;;;;16.44;49.63;101192.25;5020026;28;20072;-62
2021/09/30 11:13:19;;;;;;;4.82;1.13;;;;;;;16.90;52.38;101191.03;5012044;28;20056;-63
2021/09/30 11:16:08;;;;;;;4.97;1.00;;;;;;;16.86;50.03;101174.22;5012109;28;20511;-63
2021/09/30 11:18:54;;;;;;;3.28;0.80;;;;;;;16.97;48.81;101189.38;5007457;28;20614;-63
2021/09/30 11:21:47;;;;;;;4.85;0.82;;;;;;;17.04;47.56;101193.13;5010104;28;20135;-63
2021/09/30 11:24:38;;;;;;;7.05;0.90;;;;;;;17.33;49.24;101191.88;5009194;28;20124;-62
2021/09/30 11:27:32;;;;;;;6.47;1.20;;;;;;;16.44;51.32;101184.97;5001553;28;20207;-62
2021/09/30 11:30:26;;;;;;;3.35;0.70;;;;;;;16.63;52.54;101200.16;5011852;28;20054;-64
2021/09/30 11:33:11;;;;;;;6.13;0.63;;;;;;;16.63;45.21;101200.16;5012043;28;20053;-63
2021/09/30 11:36:00;;;;;;;5.57;1.00;;;;;;;16.75;47.21;101200.78;5006612;28;20057;-61
2021/09/30 11:38:50;;;;;;;2.92;0.60;;;;;;;16.73;47.42;101200.94;5012217;28;20076;-62
2021/09/30 11:41:36;;;;;;;4.35;0.63;;;;;;;16.65;47.09;101193.56;5011395;28;20185;-65
2021/09/30 11:44:22;;;;;;;4.20;0.60;;;;;;;16.69;47.49;101202.25;5003837;28;20192;-62
2021/09/30 11:47:07;;;;;;;3.78;0.55;;;;;;;16.26;50.27;101209.41;5010636;28;20128;-62
2021/09/30 11:49:53;;;;;;;3.80;0.70;;;;;;;15.72;50.88;101199.59;5012199;28;20104;-62
2021/09/30 11:52:38;;;;;;;2.88;0.63;;;;;;;15.90;50.66;101208.59;5009494;28;20523;-62
2021/09/30 11:55:27;;;;;;;2.70;0.50;;;;;;;15.69;54.29;101216.16;5007628;28;20135;-64
2021/09/30 11:58:14;;;;;;;2.97;0.70;;;;;;;15.75;51.37;101212.84;5010660;28;20073;-62
2021/09/30 12:00:59;;;;;;;4.47;0.70;;;;;;;16.08;49.93;101209.41;5011155;28;20056;-63
2021/09/30 12:03:45;;;;;;;3.28;0.90;;;;;;;16.44;50.45;101212.06;5007215;28;20060;-65
2021/09/30 12:06:38;;;;;;;5.75;0.80;;;;;;;16.50;48.66;101197.88;5005536;28;20057;-63
2021/09/30 12:09:24;;;;;;;2.38;0.63;;;;;;;17.17;49.06;101204.38;5010777;28;20126;-63
2021/09/30 12:12:10;;;;;;;5.55;0.70;;;;;;;17.56;46.42;101208.38;5007302;28;20512;-64
2021/09/30 12:14:57;;;;;;;2.83;0.88;;;;;;;17.19;48.01;101207.78;5010553;28;20056;-62
2021/09/30 12:17:43;;;;;;;7.00;0.98;;;;;;;17.28;48.19;101199.66;5006666;28;20080;-64
2021/09/30 12:20:28;;;;;;;4.53;0.80;;;;;;;17.28;46.25;101199.66;5004785;28;20060;-62
2021/09/30 12:23:15;;;;;;;9.27;1.30;;;;;;;17.23;46.95;101197.44;5006615;28;20068;-61
2021/09/30 12:26:02;;;;;;;5.20;0.73;;;;;;;16.82;48.27;101191.84;5010710;28;20065;-61
2021/09/30 12:28:48;;;;;;;5.18;0.90;;;;;;;16.74;49.65;101212.63;5010627;28;20140;-61
2021/09/30 12:31:33;;;;;;;4.28;0.93;;;;;;;16.22;50.69;101196.31;5005901;28;20172;-62
2021/09/30 12:34:22;;;;;;;5.38;0.70;;;;;;;16.46;49.01;101196.53;5011299;28;20064;-64
2021/09/30 12:37:08;;;;;;;2.45;0.90;;;;;;;16.42;49.72;101196.97;5010524;28;20056;-62
2021/09/30 12:39:59;;;;;;;6.90;1.20;;;;;;;16.67;47.66;101196.13;5009677;28;20518;-63
2021/09/30 12:43:03;;;;;;;2.75;0.80;;;;;;;17.07;48.66;101192.81;5009963;28;21089;-62
2021/09/30 12:46:00;;;;;;;4.35;0.73;;;;;;;17.58;46.95;101190.91;5011734;28;20139;-62
2021/09/30 12:48:49;;;;;;;5.18;1.80;;;;;;;17.37;45.53;101187.81;5010561;28;20060;-64
2021/09/30 12:51:34;;;;;;;6.68;1.00;;;;;;;17.33;45.13;101195.44;5010861;28;20522;-63
2021/09/30 12:54:24;;;;;;;2.35;0.70;;;;;;;17.53;44.60;101201.44;5011106;28;20561;-63
2021/09/30 12:57:11;;;;;;;4.13;1.65;;;;;;;17.36;46.08;101191.53;5009838;28;20054;-63
2021/09/30 13:00:09;;;;;;;6.38;0.95;;;;;;;17.47;45.97;101193.94;5010384;28;20430;-64
2021/09/30 13:03:11;;;;;;;3.10;0.75;;;;;;;17.07;47.93;101192.81;5007243;28;20543;-62
2021/09/30 13:05:57;;;;;;;5.57;0.77;;;;;;;17.16;46.27;101191.81;5009882;28;20060;-62
2021/09/30 13:08:44;;;;;;;5.60;0.80;;;;;;;16.90;47.49;101194.56;5007689;28;20117;-64
2021/09/30 13:11:30;;;;;;;7.28;1.02;;;;;;;16.79;49.69;101196.72;5009199;28;20212;-61
2021/09/30 13:14:21;;;;;;;8.30;0.95;;;;;;;17.34;47.98;101201.72;5010531;28;20053;-61
2021/09/30 13:17:16;;;;;;;4.72;0.80;;;;;;;17.31;46.82;101186.63;5008971;28;20052;-62
2021/09/30 13:20:06;;;;;;;3.72;0.65;;;;;;;16.86;45.85;101186.94;5006143;28;20057;-64
2021/09/30 13:22:51;;;;;;;2.03;0.68;;;;;;;16.88;46.71;101190.34;5010427;28;20186;-63
2021/09/30 13:25:37;;;;;;;4.85;1.35;;;;;;;17.26;45.56;101186.25;5006585;28;20057;-63
2021/09/30 13:28:22;;;;;;;2.60;0.70;;;;;;;17.15;45.59;101195.53;5008755;28;20612;-61
2021/09/30 13:31:07;;;;;;;2.67;0.70;;;;;;;17.43;47.91;101195.31;5005011;28;20515;-64
2021/09/30 13:33:52;;;;;;;3.30;0.85;;;;;;;17.33;47.16;101197.31;5008488;28;20056;-64
2021/09/30 13:36:39;;;;;;;7.23;0.80;;;;;;;16.35;48.49;101200.34;5008403;28;20060;-63
2021/09/30 13:39:25;;;;;;;3.80;0.68;;;;;;;16.11;49.73;101194.75;5008314;28;20116;-62
2021/09/30 13:42:11;;;;;;;6.78;1.05;;;;;;;15.86;50.48;101200.91;5004991;28;20064;-62
2021/09/30 13:44:57;;;;;;;3.47;0.65;;;;;;;15.96;49.30;101198.97;5008682;28;20643;-63
2021/09/30 13:47:42;;;;;;;5.70;0.73;;;;;;;15.86;50.79;101206.34;5008983;28;20053;-63
2021/09/30 13:50:28;;;;;;;3.67;0.82;;;;;;;15.78;50.87;101197.16;5004505;28;20096;-63
2021/09/30 13:53:21;;;;;;;2.53;0.70;;;;;;;15.58;52.02;101198.25;4998968;28;20135;-61
2021/09/30 13:56:06;;;;;;;5.25;0.77;;;;;;;15.52;54.00;101198.03;5008845;28;20187;-61
2021/09/30 13:58:51;;;;;;;2.90;0.75;;;;;;;15.53;54.77;101189.78;5009484;28;20053;-64
2021/09/30 14:01:36;;;;;;;4.50;0.80;;;;;;;15.61;54.48;101192.56;5009019;28;20139;-62
2021/09/30 14:04:22;;;;;;;4.65;1.02;;;;;;;15.49;52.46;101197.31;5008416;28;20077;-62
2021/09/30 14:07:09;;;;;;;2.42;0.98;;;;;;;15.99;50.90;101193.28;5004714;28;20072;-61
2021/09/30 14:09:55;;;;;;;2.35;0.50;;;;;;;18.60;42.29;101174.13;5014494;28;20064;-63
2021/09/30 14:12:42;;;;;;;5.75;0.80;;;;;;;21.29;34.62;101172.03;5002464;28;20084;-64
2021/09/30 14:15:27;;;;;;;2.30;0.70;;;;;;;22.46;35.40;101161.63;5000729;28;20514;-63
2021/09/30 14:18:12;;;;;;;3.22;0.82;;;;;;;24.02;30.89;101151.72;5007899;28;20056;-62
2021/09/30 14:20:57;;;;;;;2.00;0.83;;;;;;;22.21;34.59;101157.66;5012285;28;20150;-61
2021/09/30 14:23:42;;;;;;;2.92;1.05;;;;;;;19.86;38.09;101158.53;5014117;28;20312;-63
2021/09/30 14:26:29;;;;;;;4.43;0.70;;;;;;;18.25;43.88;101169.09;5012897;28;20076;-61
2021/09/30 14:29:14;;;;;;;3.55;1.00;;;;;;;17.57;46.69;101170.22;5008606;28;20076;-61
2021/09/30 14:31:59;;;;;;;1.80;0.68;;;;;;;16.64;46.22;101170.19;5012876;28;20053;-64
2021/09/30 14:34:44;;;;;;;3.00;0.60;;;;;;;16.61;46.92;101172.38;5014886;28;20068;-63
2021/09/30 14:37:29;;;;;;;4.45;1.00;;;;;;;16.59;46.72;101179.84;5006262;28;20363;-65
2021/09/30 14:40:15;;;;;;;5.93;0.77;;;;;;;19.24;40.07;101165.91;5010465;28;20056;-62
2021/09/30 14:43:01;;;;;;;2.92;0.90;;;;;;;22.34;33.09;101155.00;5013124;28;20053;-63
2021/09/30 14:45:46;;;;;;;3.50;0.70;;;;;;;22.62;34.60;101155.00;5012895;28;20071;-64
2021/09/30 14:48:31;;;;;;;2.78;0.47;;;;;;;21.89;32.20;101165.31;5013466;28;20056;-62
2021/09/30 14:51:17;;;;;;;5.60;1.15;;;;;;;22.02;33.65;101151.81;5007137;28;20136;-65
2021/09/30 14:54:02;;;;;;;4.75;0.80;;;;;;;21.74;35.17;101157.19;5011794;28;20056;-64
2021/09/30 14:56:48;;;;;;;2.67;0.70;;;;;;;21.11;34.93;101158.78;5007670;28;20068;-64
2021/09/30 14:59:34;;;;;;;4.60;0.73;;;;;;;20.32;35.54;101163.91;5013384;28;20258;-65
2021/09/30 15:02:19;;;;;;;2.75;0.60;;;;;;;19.67;38.79;101169.09;5010812;28;20471;-61
2021/09/30 15:05:05;;;;;;;3.78;0.68;;;;;;;18.92;40.78;101165.00;5005513;28;20060;-62
2021/09/30 15:07:50;;;;;;;3.13;0.95;;;;;;;17.45;44.57;101164.25;5009403;28;20081;-64
2021/09/30 15:10:36;;;;;;;7.13;0.93;;;;;;;16.56;46.51;101172.84;5008158;28;20061;-64
2021/09/30 15:13:21;;;;;;;3.42;0.80;;;;;;;15.68;49.52;101172.00;5005466;28;20503;-63
2021/09/30 15:16:09;;;;;;;2.58;0.82;;;;;;;15.41;49.97;101175.59;5013942;28;20060;-62
2021/09/30 15:19:02;;;;;;;2.55;0.65;;;;;;;15.10;49.48;101169.66;5013211;28;20184;-63
2021/09/30 15:21:47;;;;;;;7.88;2.00;;;;;;;14.78;51.18;101167.41;5018213;28;21494;-64
2021/09/30 15:24:32;;;;;;;1.88;0.50;;;;;;;14.43;55.14;101173.47;5011547;28;20061;-62